PWSweather.com
Personal Weather Stations
Station Observations
IDALMACI22
Prvic LukaHR

Prvic LukaHR

Lat: 43.72542191, Lon: 15.7968483

Elevation: 20

Station Type: ws 2300

Latest ConditionsUpdated 6:00:05 PM GMT+01:01 Sunday, Sep 23, 2018
Currently Today's Max Today's Min Today's Average
Temperature 76.3°F24.6°C 79.7°F26.5°C 64.0°F17.8°C 72.4°F22.4°C
Dew Point 68.5°F20.3°C 71.7°F22.1°C 54.2°F12.3°C 63.5°F17.5°C
Winds 8.1 mph SE13.0 kmh SE 11.4 mph -18.3 kmh - - 3.2 mph 5.1 kmh
Wind Gusts 8.1 mph13.0 kmh 11.4 mph18.3 kmh - -
Humidity 77% 79% 65% 74%
Pressure 29.91 in1012.9 mb 30.02 in1016.6 mb 29.91 in1012.9 mb -
Hour Temp Dew Point Humidity Winds Wind Gusts Pressure Precip Precip Rate Daily Precip Total
06:00 PM 76.3°F24.6°C 68.5°F20.3°C 77% 8.1 mph SE13.0 kmh SE 8.1 mph13.0 kmh 29.91 in1012.9 mb 0.00 in0.0 mm 0.00 in0.0 mm 0.00 in0.0 mm
05:50 PM 76.3°F24.6°C 68.9°F20.5°C 78% 1.6 mph SE2.6 kmh SE 2.9 mph4.7 kmh 29.91 in1012.9 mb 0.00 in0.0 mm 0.00 in0.0 mm 0.00 in0.0 mm
05:40 PM 76.6°F24.8°C 69.6°F20.9°C 79% 2.2 mph ESE3.5 kmh ESE 5.1 mph8.2 kmh 29.92 in1013.2 mb 0.00 in0.0 mm 0.00 in0.0 mm 0.00 in0.0 mm
05:30 PM 76.6°F24.8°C 69.2°F20.7°C 78% 5.1 mph S8.2 kmh S 5.1 mph8.2 kmh 29.92 in1013.2 mb 0.00 in0.0 mm 0.00 in0.0 mm 0.00 in0.0 mm
05:20 PM 77.0°F25.0°C 69.6°F20.9°C 78% 4.0 mph SW6.4 kmh SW 4.0 mph6.4 kmh 29.92 in1013.2 mb 0.00 in0.0 mm 0.00 in0.0 mm 0.00 in0.0 mm
05:10 PM 77.2°F25.1°C 69.7°F20.9°C 78% 2.9 mph SSE4.7 kmh SSE 6.9 mph11.1 kmh 29.93 in1013.5 mb 0.00 in0.0 mm 0.00 in0.0 mm 0.00 in0.0 mm
05:00 PM 77.5°F25.3°C 69.7°F20.9°C 77% 6.3 mph SSE10.1 kmh SSE 6.5 mph10.5 kmh 29.93 in1013.5 mb 0.00 in0.0 mm 0.00 in0.0 mm 0.00 in0.0 mm
04:50 PM 77.5°F25.3°C 69.7°F20.9°C 77% 4.7 mph SSE7.6 kmh SSE 6.7 mph10.8 kmh 29.93 in1013.5 mb 0.00 in0.0 mm 0.00 in0.0 mm 0.00 in0.0 mm
04:40 PM 77.7°F25.4°C 69.9°F21.1°C 77% 6.5 mph SSE10.5 kmh SSE 6.5 mph10.5 kmh 29.93 in1013.5 mb 0.00 in0.0 mm 0.00 in0.0 mm 0.00 in0.0 mm
04:30 PM 77.9°F25.5°C 70.1°F21.2°C 77% 2.0 mph SSE3.2 kmh SSE 10.1 mph16.3 kmh 29.93 in1013.5 mb 0.00 in0.0 mm 0.00 in0.0 mm 0.00 in0.0 mm
04:20 PM 78.1°F25.6°C 70.3°F21.3°C 77% 2.9 mph SSE4.7 kmh SSE 4.5 mph7.2 kmh 29.93 in1013.5 mb 0.00 in0.0 mm 0.00 in0.0 mm 0.00 in0.0 mm
04:10 PM 78.1°F25.6°C 70.6°F21.4°C 78% 4.3 mph SSE6.9 kmh SSE 5.1 mph8.2 kmh 29.94 in1013.9 mb 0.00 in0.0 mm 0.00 in0.0 mm 0.00 in0.0 mm
04:00 PM 78.1°F25.6°C 71.0°F21.7°C 79% 3.8 mph SSE6.1 kmh SSE 3.8 mph6.1 kmh 29.94 in1013.9 mb 0.00 in0.0 mm 0.00 in0.0 mm 0.00 in0.0 mm
03:50 PM 78.1°F25.6°C 70.6°F21.4°C 78% 3.8 mph S6.1 kmh S 6.5 mph10.5 kmh 29.94 in1013.9 mb 0.00 in0.0 mm 0.00 in0.0 mm 0.00 in0.0 mm
03:40 PM 78.1°F25.6°C 70.6°F21.4°C 78% 6.5 mph SSE10.5 kmh SSE 8.3 mph13.4 kmh 29.94 in1013.9 mb 0.00 in0.0 mm 0.00 in0.0 mm 0.00 in0.0 mm
03:30 PM 78.4°F25.8°C 71.0°F21.7°C 78% 7.8 mph SSE12.6 kmh SSE 8.9 mph14.3 kmh 29.95 in1014.2 mb 0.00 in0.0 mm 0.00 in0.0 mm 0.00 in0.0 mm
03:20 PM 78.6°F25.9°C 70.8°F21.6°C 77% 3.6 mph S5.8 kmh S 5.6 mph9.0 kmh 29.95 in1014.2 mb 0.00 in0.0 mm 0.00 in0.0 mm 0.00 in0.0 mm
03:10 PM 79.2°F26.2°C 71.3°F21.8°C 77% 5.6 mph SW9.0 kmh SW 5.6 mph9.0 kmh 29.96 in1014.6 mb 0.00 in0.0 mm 0.00 in0.0 mm 0.00 in0.0 mm
03:00 PM 79.2°F26.2°C 71.3°F21.8°C 77% 5.6 mph S9.0 kmh S 10.3 mph16.6 kmh 29.96 in1014.6 mb 0.00 in0.0 mm 0.00 in0.0 mm 0.00 in0.0 mm
02:50 PM 79.5°F26.4°C 71.7°F22.1°C 77% 10.3 mph S16.6 kmh S 10.3 mph16.6 kmh 29.96 in1014.6 mb 0.00 in0.0 mm 0.00 in0.0 mm 0.00 in0.0 mm
02:40 PM 79.5°F26.4°C 71.3°F21.8°C 76% 3.4 mph S5.5 kmh S 7.6 mph12.2 kmh 29.96 in1014.6 mb 0.00 in0.0 mm 0.00 in0.0 mm 0.00 in0.0 mm
02:30 PM 79.2°F26.2°C 71.3°F21.8°C 77% 5.8 mph SE9.3 kmh SE 5.8 mph9.3 kmh 29.96 in1014.6 mb 0.00 in0.0 mm 0.00 in0.0 mm 0.00 in0.0 mm
02:20 PM 78.6°F25.9°C 71.2°F21.8°C 78% 4.9 mph S7.9 kmh S 5.8 mph9.3 kmh 29.96 in1014.6 mb 0.00 in0.0 mm 0.00 in0.0 mm 0.00 in0.0 mm
02:10 PM 78.6°F25.9°C 70.8°F21.6°C 77% 5.8 mph SE9.3 kmh SE 11.2 mph18.0 kmh 29.97 in1014.9 mb 0.00 in0.0 mm 0.00 in0.0 mm 0.00 in0.0 mm
02:00 PM 78.6°F25.9°C 70.8°F21.6°C 77% 9.2 mph SE14.8 kmh SE 11.2 mph18.0 kmh 29.98 in1015.2 mb 0.00 in0.0 mm 0.00 in0.0 mm 0.00 in0.0 mm
01:50 PM 78.8°F26.0°C 70.6°F21.4°C 76% 8.7 mph SE14.0 kmh SE 8.7 mph14.0 kmh 29.98 in1015.2 mb 0.00 in0.0 mm 0.00 in0.0 mm 0.00 in0.0 mm
01:40 PM 78.6°F25.9°C 70.8°F21.6°C 77% 5.1 mph SE8.2 kmh SE 6.3 mph10.1 kmh 29.98 in1015.2 mb 0.00 in0.0 mm 0.00 in0.0 mm 0.00 in0.0 mm
01:30 PM 78.6°F25.9°C 70.8°F21.6°C 77% 3.4 mph SE5.5 kmh SE 9.6 mph15.4 kmh 29.98 in1015.2 mb 0.00 in0.0 mm 0.00 in0.0 mm 0.00 in0.0 mm
01:20 PM 78.6°F25.9°C 70.4°F21.3°C 76% 2.5 mph SE4.0 kmh SE 5.1 mph8.2 kmh 29.98 in1015.2 mb 0.00 in0.0 mm 0.00 in0.0 mm 0.00 in0.0 mm
01:10 PM 78.6°F25.9°C 70.4°F21.3°C 76% 2.5 mph SE4.0 kmh SE 7.4 mph11.9 kmh 29.99 in1015.6 mb 0.00 in0.0 mm 0.00 in0.0 mm 0.00 in0.0 mm
01:00 PM 78.6°F25.9°C 70.0°F21.1°C 75% 2.9 mph SSE4.7 kmh SSE 9.8 mph15.8 kmh 30.00 in1015.9 mb 0.00 in0.0 mm 0.00 in0.0 mm 0.00 in0.0 mm
12:50 PM 79.0°F26.1°C 70.3°F21.3°C 75% 9.8 mph S15.8 kmh S 10.5 mph16.9 kmh 30.00 in1015.9 mb 0.00 in0.0 mm 0.00 in0.0 mm 0.00 in0.0 mm
12:40 PM 79.0°F26.1°C 69.5°F20.8°C 73% 10.5 mph SE16.9 kmh SE 10.5 mph16.9 kmh 30.00 in1015.9 mb 0.00 in0.0 mm 0.00 in0.0 mm 0.00 in0.0 mm
12:30 PM 78.6°F25.9°C 68.8°F20.4°C 72% 6.5 mph S10.5 kmh S 8.1 mph13.0 kmh 30.01 in1016.3 mb 0.00 in0.0 mm 0.00 in0.0 mm 0.00 in0.0 mm
12:20 PM 78.6°F25.9°C 68.4°F20.2°C 71% 8.1 mph S13.0 kmh S 8.1 mph13.0 kmh 30.01 in1016.3 mb 0.00 in0.0 mm 0.00 in0.0 mm 0.00 in0.0 mm
12:10 PM 79.0°F26.1°C 69.2°F20.7°C 72% 6.5 mph SE10.5 kmh SE 11.2 mph18.0 kmh 30.01 in1016.3 mb 0.00 in0.0 mm 0.00 in0.0 mm 0.00 in0.0 mm
12:00 PM 79.2°F26.2°C 69.3°F20.7°C 72% 4.3 mph SE6.9 kmh SE 7.8 mph12.6 kmh 30.02 in1016.6 mb 0.00 in0.0 mm 0.00 in0.0 mm 0.00 in0.0 mm
11:50 AM 79.7°F26.5°C 70.3°F21.3°C 73% 6.7 mph SE10.8 kmh SE 10.7 mph17.2 kmh 30.01 in1016.3 mb 0.00 in0.0 mm 0.00 in0.0 mm 0.00 in0.0 mm
11:40 AM 79.7°F26.5°C 69.9°F21.1°C 72% 3.6 mph SSE5.8 kmh SSE 4.5 mph7.2 kmh 30.01 in1016.3 mb 0.00 in0.0 mm 0.00 in0.0 mm 0.00 in0.0 mm
11:30 AM 79.5°F26.4°C 69.7°F20.9°C 72% 4.5 mph SE7.2 kmh SE 9.8 mph15.8 kmh 30.02 in1016.6 mb 0.00 in0.0 mm 0.00 in0.0 mm 0.00 in0.0 mm
11:20 AM 79.5°F26.4°C 69.3°F20.7°C 71% 5.4 mph SE8.7 kmh SE 5.4 mph8.7 kmh 30.02 in1016.6 mb 0.00 in0.0 mm 0.00 in0.0 mm 0.00 in0.0 mm
11:10 AM 79.5°F26.4°C 70.1°F21.2°C 73% 4.9 mph SSE7.9 kmh SSE 7.2 mph11.6 kmh 30.01 in1016.3 mb 0.00 in0.0 mm 0.00 in0.0 mm 0.00 in0.0 mm
11:00 AM 79.5°F26.4°C 70.1°F21.2°C 73% 7.2 mph SE11.6 kmh SE 11.4 mph18.3 kmh 30.01 in1016.3 mb 0.00 in0.0 mm 0.00 in0.0 mm 0.00 in0.0 mm
10:50 AM 79.5°F26.4°C 70.1°F21.2°C 73% 11.4 mph SSE18.3 kmh SSE 11.4 mph18.3 kmh 30.01 in1016.3 mb 0.00 in0.0 mm 0.00 in0.0 mm 0.00 in0.0 mm
10:40 AM 79.5°F26.4°C 70.5°F21.4°C 74% 2.0 mph SSW3.2 kmh SSW 4.5 mph7.2 kmh 30.01 in1016.3 mb 0.00 in0.0 mm 0.00 in0.0 mm 0.00 in0.0 mm
10:30 AM 78.6°F25.9°C 70.0°F21.1°C 75% 4.5 mph S7.2 kmh S 5.6 mph9.0 kmh 30.01 in1016.3 mb 0.00 in0.0 mm 0.00 in0.0 mm 0.00 in0.0 mm
10:20 AM 78.4°F25.8°C 69.0°F20.6°C 73% 5.6 mph SE9.0 kmh SE 7.2 mph11.6 kmh 30.02 in1016.6 mb 0.00 in0.0 mm 0.00 in0.0 mm 0.00 in0.0 mm
10:10 AM 79.0°F26.1°C 68.4°F20.2°C 70% 7.2 mph SE11.6 kmh SE 7.2 mph11.6 kmh 30.01 in1016.3 mb 0.00 in0.0 mm 0.00 in0.0 mm 0.00 in0.0 mm
10:00 AM 78.8°F26.0°C 67.7°F19.8°C 69% 3.1 mph SE5.0 kmh SE 8.7 mph14.0 kmh 30.01 in1016.3 mb 0.00 in0.0 mm 0.00 in0.0 mm 0.00 in0.0 mm
09:50 AM 78.6°F25.9°C 66.7°F19.3°C 67% 8.7 mph SE14.0 kmh SE 8.7 mph14.0 kmh 30.01 in1016.3 mb 0.00 in0.0 mm 0.00 in0.0 mm 0.00 in0.0 mm
09:40 AM 79.2°F26.2°C 66.8°F19.3°C 66% 0.7 mph S1.1 kmh S 3.1 mph5.0 kmh 30.01 in1016.3 mb 0.00 in0.0 mm 0.00 in0.0 mm 0.00 in0.0 mm
09:30 AM 79.3°F26.3°C 67.0°F19.4°C 66% 3.1 mph S5.0 kmh S 3.1 mph5.0 kmh 30.01 in1016.3 mb 0.00 in0.0 mm 0.00 in0.0 mm 0.00 in0.0 mm
09:20 AM 79.3°F26.3°C 67.0°F19.4°C 66% 1.6 mph S2.6 kmh S 1.6 mph2.6 kmh 30.01 in1016.3 mb 0.00 in0.0 mm 0.00 in0.0 mm 0.00 in0.0 mm
09:10 AM 78.6°F25.9°C 66.3°F19.1°C 66% 0.9 mph S1.4 kmh S 0.9 mph1.4 kmh 30.00 in1015.9 mb 0.00 in0.0 mm 0.00 in0.0 mm 0.00 in0.0 mm
09:00 AM 77.7°F25.4°C 65.0°F18.3°C 65% Calm Calm 1.3 mph2.1 kmh 30.00 in1015.9 mb 0.00 in0.0 mm 0.00 in0.0 mm 0.00 in0.0 mm
08:50 AM 76.8°F24.9°C 65.0°F18.3°C 67% Calm Calm -- 29.99 in1015.6 mb 0.00 in0.0 mm 0.00 in0.0 mm 0.00 in0.0 mm
08:40 AM 76.1°F24.5°C 64.8°F18.2°C 68% Calm Calm -- 29.99 in1015.6 mb 0.00 in0.0 mm 0.00 in0.0 mm 0.00 in0.0 mm
08:30 AM 74.8°F23.8°C 64.0°F17.8°C 69% Calm Calm 1.1 mph1.8 kmh 29.98 in1015.2 mb 0.00 in0.0 mm 0.00 in0.0 mm 0.00 in0.0 mm
08:20 AM 74.1°F23.4°C 63.8°F17.7°C 70% 1.1 mph S1.8 kmh S 1.1 mph1.8 kmh 29.99 in1015.6 mb 0.00 in0.0 mm 0.00 in0.0 mm 0.00 in0.0 mm
08:10 AM 73.0°F22.8°C 63.5°F17.5°C 72% Calm Calm -- 29.99 in1015.6 mb 0.00 in0.0 mm 0.00 in0.0 mm 0.00 in0.0 mm
08:00 AM 72.5°F22.5°C 63.4°F17.4°C 73% Calm Calm 1.3 mph2.1 kmh 29.99 in1015.6 mb 0.00 in0.0 mm 0.00 in0.0 mm 0.00 in0.0 mm
07:50 AM 71.2°F21.8°C 62.5°F16.9°C 74% 1.3 mph S2.1 kmh S 1.3 mph2.1 kmh 29.99 in1015.6 mb 0.00 in0.0 mm 0.00 in0.0 mm 0.00 in0.0 mm
07:40 AM 69.6°F20.9°C 61.6°F16.4°C 76% Calm Calm -- 29.99 in1015.6 mb 0.00 in0.0 mm 0.00 in0.0 mm 0.00 in0.0 mm
07:30 AM 68.5°F20.3°C 61.1°F16.2°C 77% Calm Calm 1.1 mph1.8 kmh 29.98 in1015.2 mb 0.00 in0.0 mm 0.00 in0.0 mm 0.00 in0.0 mm
07:20 AM 67.1°F19.5°C 60.0°F15.6°C 78% Calm Calm -- 29.98 in1015.2 mb 0.00 in0.0 mm 0.00 in0.0 mm 0.00 in0.0 mm
07:10 AM 66.2°F19.0°C 59.1°F15.1°C 78% Calm Calm 0.7 mph1.1 kmh 29.98 in1015.2 mb 0.00 in0.0 mm 0.00 in0.0 mm 0.00 in0.0 mm
07:00 AM 65.7°F18.7°C 58.6°F14.8°C 78% Calm Calm -- 29.98 in1015.2 mb 0.00 in0.0 mm 0.00 in0.0 mm 0.00 in0.0 mm
06:50 AM 64.8°F18.2°C 58.1°F14.5°C 79% Calm Calm 1.6 mph2.6 kmh 29.98 in1015.2 mb 0.00 in0.0 mm 0.00 in0.0 mm 0.00 in0.0 mm
06:40 AM 64.2°F17.9°C 57.2°F14.0°C 78% Calm Calm 2.7 mph4.3 kmh 29.98 in1015.2 mb 0.00 in0.0 mm 0.00 in0.0 mm 0.00 in0.0 mm
06:30 AM 64.0°F17.8°C 57.0°F13.9°C 78% 1.1 mph NNE1.8 kmh NNE 1.1 mph1.8 kmh 29.97 in1014.9 mb 0.00 in0.0 mm 0.00 in0.0 mm 0.00 in0.0 mm
06:20 AM 64.0°F17.8°C 56.7°F13.7°C 77% Calm Calm -- 29.98 in1015.2 mb 0.00 in0.0 mm 0.00 in0.0 mm 0.00 in0.0 mm
06:10 AM 64.0°F17.8°C 56.7°F13.7°C 77% Calm Calm -- 29.98 in1015.2 mb 0.00 in0.0 mm 0.00 in0.0 mm 0.00 in0.0 mm
06:00 AM 64.0°F17.8°C 56.3°F13.5°C 76% Calm Calm -- 29.97 in1014.9 mb 0.00 in0.0 mm 0.00 in0.0 mm 0.00 in0.0 mm
05:50 AM 64.0°F17.8°C 56.3°F13.5°C 76% Calm Calm 1.6 mph2.6 kmh 29.97 in1014.9 mb 0.00 in0.0 mm 0.00 in0.0 mm 0.00 in0.0 mm
05:40 AM 64.2°F17.9°C 56.5°F13.6°C 76% Calm Calm 1.6 mph2.6 kmh 29.97 in1014.9 mb 0.00 in0.0 mm 0.00 in0.0 mm 0.00 in0.0 mm
05:30 AM 64.2°F17.9°C 56.5°F13.6°C 76% 1.6 mph NE2.6 kmh NE 1.8 mph2.9 kmh 29.97 in1014.9 mb 0.00 in0.0 mm 0.00 in0.0 mm 0.00 in0.0 mm
05:20 AM 64.0°F17.8°C 56.3°F13.5°C 76% Calm Calm 0.7 mph1.1 kmh 29.97 in1014.9 mb 0.00 in0.0 mm 0.00 in0.0 mm 0.00 in0.0 mm
05:10 AM 64.0°F17.8°C 56.3°F13.5°C 76% 0.7 mph N1.1 kmh N 2.0 mph3.2 kmh 29.97 in1014.9 mb 0.00 in0.0 mm 0.00 in0.0 mm 0.00 in0.0 mm
05:00 AM 64.0°F17.8°C 55.9°F13.3°C 75% Calm Calm -- 29.97 in1014.9 mb 0.00 in0.0 mm 0.00 in0.0 mm 0.00 in0.0 mm
04:50 AM 64.2°F17.9°C 56.1°F13.4°C 75% Calm Calm -- 29.97 in1014.9 mb 0.00 in0.0 mm 0.00 in0.0 mm 0.00 in0.0 mm
04:40 AM 64.2°F17.9°C 56.1°F13.4°C 75% Calm Calm -- 29.97 in1014.9 mb 0.00 in0.0 mm 0.00 in0.0 mm 0.00 in0.0 mm
04:30 AM 64.2°F17.9°C 56.1°F13.4°C 75% Calm Calm 1.6 mph2.6 kmh 29.98 in1015.2 mb 0.00 in0.0 mm 0.00 in0.0 mm 0.00 in0.0 mm
04:20 AM 64.2°F17.9°C 55.8°F13.2°C 74% Calm Calm -- 29.97 in1014.9 mb 0.00 in0.0 mm 0.00 in0.0 mm 0.00 in0.0 mm
04:10 AM 64.4°F18.0°C 55.9°F13.3°C 74% Calm Calm 1.3 mph2.1 kmh 29.97 in1014.9 mb 0.00 in0.0 mm 0.00 in0.0 mm 0.00 in0.0 mm
04:00 AM 64.6°F18.1°C 55.7°F13.2°C 73% Calm Calm 1.8 mph2.9 kmh 29.98 in1015.2 mb 0.00 in0.0 mm 0.00 in0.0 mm 0.00 in0.0 mm
03:50 AM 64.6°F18.1°C 55.7°F13.2°C 73% 1.8 mph NNE2.9 kmh NNE 3.8 mph6.1 kmh 29.97 in1014.9 mb 0.00 in0.0 mm 0.00 in0.0 mm 0.00 in0.0 mm
03:40 AM 64.8°F18.2°C 55.9°F13.3°C 73% 2.5 mph N4.0 kmh N 3.8 mph6.1 kmh 29.97 in1014.9 mb 0.00 in0.0 mm 0.00 in0.0 mm 0.00 in0.0 mm
03:30 AM 64.9°F18.3°C 56.1°F13.4°C 73% 1.1 mph NNE1.8 kmh NNE 2.7 mph4.3 kmh 29.97 in1014.9 mb 0.00 in0.0 mm 0.00 in0.0 mm 0.00 in0.0 mm
03:20 AM 64.8°F18.2°C 55.9°F13.3°C 73% 2.7 mph N4.3 kmh N 2.9 mph4.7 kmh 29.97 in1014.9 mb 0.00 in0.0 mm 0.00 in0.0 mm 0.00 in0.0 mm
03:10 AM 64.6°F18.1°C 55.4°F13.0°C 72% 2.9 mph N4.7 kmh N 4.0 mph6.4 kmh 29.97 in1014.9 mb 0.00 in0.0 mm 0.00 in0.0 mm 0.00 in0.0 mm
03:00 AM 64.6°F18.1°C 55.4°F13.0°C 72% 3.6 mph NE5.8 kmh NE 6.0 mph9.7 kmh 29.97 in1014.9 mb 0.00 in0.0 mm 0.00 in0.0 mm 0.00 in0.0 mm
02:50 AM 64.6°F18.1°C 55.4°F13.0°C 72% 6.0 mph NNE9.7 kmh NNE 6.0 mph9.7 kmh 29.96 in1014.6 mb 0.00 in0.0 mm 0.00 in0.0 mm 0.00 in0.0 mm
02:40 AM 64.6°F18.1°C 55.0°F12.8°C 71% 3.8 mph NNE6.1 kmh NNE 3.8 mph6.1 kmh 29.97 in1014.9 mb 0.00 in0.0 mm 0.00 in0.0 mm 0.00 in0.0 mm
02:30 AM 64.6°F18.1°C 55.0°F12.8°C 71% 3.1 mph NNE5.0 kmh NNE 4.0 mph6.4 kmh 29.97 in1014.9 mb 0.00 in0.0 mm 0.00 in0.0 mm 0.00 in0.0 mm
02:20 AM 64.8°F18.2°C 55.2°F12.9°C 71% 4.0 mph NNE6.4 kmh NNE 4.9 mph7.9 kmh 29.97 in1014.9 mb 0.00 in0.0 mm 0.00 in0.0 mm 0.00 in0.0 mm
02:10 AM 64.9°F18.3°C 55.0°F12.8°C 70% 3.1 mph NNE5.0 kmh NNE 7.2 mph11.6 kmh 29.97 in1014.9 mb 0.00 in0.0 mm 0.00 in0.0 mm 0.00 in0.0 mm
02:00 AM 65.1°F18.4°C 55.1°F12.8°C 70% 6.7 mph N10.8 kmh N 6.7 mph10.8 kmh 29.97 in1014.9 mb 0.00 in0.0 mm 0.00 in0.0 mm 0.00 in0.0 mm
01:50 AM 65.1°F18.4°C 55.1°F12.8°C 70% 3.4 mph NNE5.5 kmh NNE 4.5 mph7.2 kmh 29.97 in1014.9 mb 0.00 in0.0 mm 0.00 in0.0 mm 0.00 in0.0 mm
01:40 AM 65.1°F18.4°C 55.1°F12.8°C 70% 2.5 mph NNE4.0 kmh NNE 3.8 mph6.1 kmh 29.97 in1014.9 mb 0.00 in0.0 mm 0.00 in0.0 mm 0.00 in0.0 mm
01:30 AM 65.3°F18.5°C 55.3°F12.9°C 70% 3.8 mph NNE6.1 kmh NNE 3.8 mph6.1 kmh 29.97 in1014.9 mb 0.00 in0.0 mm 0.00 in0.0 mm 0.00 in0.0 mm
01:20 AM 65.3°F18.5°C 54.9°F12.7°C 69% 2.7 mph NNE4.3 kmh NNE 6.7 mph10.8 kmh 29.98 in1015.2 mb 0.00 in0.0 mm 0.00 in0.0 mm 0.00 in0.0 mm
01:10 AM 65.5°F18.6°C 55.0°F12.8°C 69% 0.7 mph NE1.1 kmh NE 2.5 mph4.0 kmh 29.98 in1015.2 mb 0.00 in0.0 mm 0.00 in0.0 mm 0.00 in0.0 mm
01:00 AM 65.5°F18.6°C 55.0°F12.8°C 69% 2.0 mph N3.2 kmh N 3.1 mph5.0 kmh 29.98 in1015.2 mb 0.00 in0.0 mm 0.00 in0.0 mm 0.00 in0.0 mm
12:50 AM 65.5°F18.6°C 54.6°F12.6°C 68% 2.5 mph NE4.0 kmh NE 4.5 mph7.2 kmh 29.98 in1015.2 mb 0.00 in0.0 mm 0.00 in0.0 mm 0.00 in0.0 mm
12:40 AM 65.5°F18.6°C 54.6°F12.6°C 68% 4.5 mph NE7.2 kmh NE 4.5 mph7.2 kmh 29.98 in1015.2 mb 0.00 in0.0 mm 0.00 in0.0 mm 0.00 in0.0 mm
12:30 AM 65.5°F18.6°C 54.6°F12.6°C 68% Calm Calm -- 29.98 in1015.2 mb 0.00 in0.0 mm 0.00 in0.0 mm 0.00 in0.0 mm
12:20 AM 65.5°F18.6°C 54.6°F12.6°C 68% Calm Calm -- 29.98 in1015.2 mb 0.00 in0.0 mm 0.00 in0.0 mm 0.00 in0.0 mm
12:10 AM 65.5°F18.6°C 54.6°F12.6°C 68% Calm Calm 1.6 mph2.6 kmh 29.98 in1015.2 mb 0.00 in0.0 mm 0.00 in0.0 mm 0.00 in0.0 mm
12:00 AM 65.5°F18.6°C 54.2°F12.3°C 67% 1.6 mph N2.6 kmh N 1.6 mph2.6 kmh 29.98 in1015.2 mb 0.00 in0.0 mm 0.00 in0.0 mm 0.00 in0.0 mm